^^
Saratoga-Weather Station Historical Data
Daily Summary for January 24, 2022 Units:  Metric    English   Both
Daily Weekly Monthly Yearly Custom
  High: Low: Average:
Temperature: 7 °C -1.1 °C 2.7 °C
Dew Point: 3 °C -1.9 °C 0.6 °C
Humidity: 95% 75% 86%
Wind Speed: 11.1km/h 0km/h 1.8km/h
Wind Gust: 16.1km/h - -
Wind- - East
Pressure: 1032.8 hPa 1031.2 hPa -
Precipitation: 0.0 mm    
Historical Graphs
 
 
Tabular Data for January 24, 2022
Time Temperature Dew Point Pressure Wind Wind Speed Wind Gust Humidity Rainfall Rate (Hourly) solar
00:02 4.1 °C 1.3 °C 1032.8 hPa ESE 4.7 km/h 6.4 km/h 82% 0.0 mm 0 W/m2
00:07 4.1 °C 1.3 °C 1032.8 hPa East 11.1 km/h 11.3 km/h 82% 0.0 mm 0 W/m2
00:12 4.1 °C 1.3 °C 1032.8 hPa ENE 3.2 km/h 16.1 km/h 82% 0.0 mm 0 W/m2
00:17 4.1 °C 1.3 °C 1032.8 hPa ENE 4.7 km/h 9.7 km/h 82% 0.0 mm 0 W/m2
00:22 4.1 °C 1.3 °C 1032.8 hPa East 4.7 km/h 16.1 km/h 82% 0.0 mm 0 W/m2
00:27 4.1 °C 1.3 °C 1032.8 hPa ESE 3.2 km/h 9.7 km/h 82% 0.0 mm 0 W/m2
00:32 4.1 °C 1.5 °C 1032.8 hPa ESE 4.7 km/h 8 km/h 83% 0.0 mm 0 W/m2
00:37 4 °C 1.4 °C 1032.8 hPa ESE 3.2 km/h 9.7 km/h 83% 0.0 mm 0 W/m2
00:42 4 °C 1.4 °C 1032.8 hPa ESE 3.2 km/h 6.4 km/h 83% 0.0 mm 0 W/m2
00:47 4 °C 1.4 °C 1032.8 hPa East 3.2 km/h 6.4 km/h 83% 0.0 mm 0 W/m2
00:52 4.1 °C 1.5 °C 1032.8 hPa ESE 1.4 km/h 6.4 km/h 83% 0.0 mm 0 W/m2
00:57 4.1 °C 1.5 °C 1032.8 hPa East 4.7 km/h 8 km/h 83% 0.0 mm 0 W/m2
01:02 4.1 °C 1.5 °C 1032.8 hPa East 3.2 km/h 9.7 km/h 83% 0.0 mm 0 W/m2
01:07 4.2 °C 1.6 °C 1032.8 hPa ESE 9.7 km/h 12.9 km/h 83% 0.0 mm 0 W/m2
01:12 4.2 °C 1.6 °C 1032.8 hPa East 6.4 km/h 9.7 km/h 83% 0.0 mm 0 W/m2
01:17 4.2 °C 1.6 °C 1032.8 hPa East 3.2 km/h 6.4 km/h 83% 0.0 mm 0 W/m2
01:22 4.2 °C 1.6 °C 1032.8 hPa ENE 3.2 km/h 4.8 km/h 83% 0.0 mm 0 W/m2
01:27 4.2 °C 1.6 °C 1032.8 hPa East 6.4 km/h 6.4 km/h 83% 0.0 mm 0 W/m2
01:32 4.2 °C 1.6 °C 1032.8 hPa ESE 4.7 km/h 6.4 km/h 83% 0.0 mm 0 W/m2
01:37 4.2 °C 1.6 °C 1032.5 hPa NE 7.9 km/h 11.3 km/h 83% 0.0 mm 0 W/m2
01:42 4.3 °C 1.7 °C 1032.8 hPa ESE 7.9 km/h 11.3 km/h 83% 0.0 mm 0 W/m2
01:47 4.3 °C 1.7 °C 1032.8 hPa ESE 6.4 km/h 6.4 km/h 83% 0.0 mm 0 W/m2
01:52 4.3 °C 1.7 °C 1032.8 hPa East 3.2 km/h 6.4 km/h 83% 0.0 mm 0 W/m2
01:57 4.2 °C 1.6 °C 1032.8 hPa East 6.4 km/h 14.5 km/h 83% 0.0 mm 0 W/m2
02:02 4.2 °C 1.6 °C 1032.8 hPa ESE 4.7 km/h 11.3 km/h 83% 0.0 mm 0 W/m2
02:07 4.2 °C 1.6 °C 1032.8 hPa East 3.2 km/h 14.5 km/h 83% 0.0 mm 0 W/m2
02:12 4.2 °C 1.6 °C 1032.8 hPa ESE 3.2 km/h 9.7 km/h 83% 0.0 mm 0 W/m2
02:17 4.1 °C 1.5 °C 1032.5 hPa ESE 6.4 km/h 9.7 km/h 83% 0.0 mm 0 W/m2
02:22 4 °C 1.4 °C 1032.5 hPa ESE 3.2 km/h 6.4 km/h 83% 0.0 mm 0 W/m2
02:27 3.8 °C 1.2 °C 1032.5 hPa East 3.2 km/h 6.4 km/h 83% 0.0 mm 0 W/m2
02:32 3.7 °C 1.2 °C 1032.5 hPa SE 1.4 km/h 4.8 km/h 84% 0.0 mm 0 W/m2
02:37 3.5 °C 1.1 °C 1032.5 hPa SE 1.4 km/h 6.4 km/h 84% 0.0 mm 0 W/m2
02:42 3.3 °C 1 °C 1032.5 hPa ESE 1.4 km/h 4.8 km/h 85% 0.0 mm 0 W/m2
02:47 3.1 °C 0.8 °C 1032.5 hPa ESE 1.4 km/h 3.2 km/h 85% 0.0 mm 0 W/m2
02:52 2.9 °C 0.8 °C 1032.5 hPa East 3.2 km/h 3.2 km/h 86% 0.0 mm 0 W/m2
02:57 2.8 °C 0.7 °C 1032.5 hPa East 3.2 km/h 4.8 km/h 86% 0.0 mm 0 W/m2
03:02 2.6 °C 0.5 °C 1032.5 hPa Calm   3.2 km/h 86% 0.0 mm 0 W/m2
03:07 2.4 °C 0.5 °C 1032.5 hPa SE 4.8 km/h 4.8 km/h 87% 0.0 mm 0 W/m2
03:12 2.3 °C 0.4 °C 1032.5 hPa ESE 3.2 km/h 3.2 km/h 87% 0.0 mm 0 W/m2
03:17 2.1 °C 0.3 °C 1032.5 hPa Calm   3.2 km/h 88% 0.0 mm 0 W/m2
03:22 2 °C 0.2 °C 1032.5 hPa Calm   1.6 km/h 88% 0.0 mm 0 W/m2
03:27 1.9 °C 0.1 °C 1032.5 hPa Calm   3.2 km/h 88% 0.0 mm 0 W/m2
03:32 1.7 °C -0.1 °C 1032.5 hPa Calm   1.6 km/h 88% 0.0 mm 0 W/m2
03:37 1.6 °C 0 °C 1032.2 hPa ESE 1.4 km/h 4.8 km/h 89% 0.0 mm 0 W/m2
03:42 1.5 °C -0.1 °C 1032.5 hPa ESE 3.2 km/h 3.2 km/h 89% 0.0 mm 0 W/m2
03:47 1.4 °C -0.1 °C 1032.2 hPa ESE 1.4 km/h 4.8 km/h 90% 0.0 mm 0 W/m2
03:52 1.3 °C -0.2 °C 1032.2 hPa Calm     90% 0.0 mm 0 W/m2
03:57 1.3 °C -0.2 °C 1032.2 hPa ESE 1.4 km/h 3.2 km/h 90% 0.0 mm 0 W/m2
04:02 1.3 °C -0.2 °C 1032.2 hPa Calm   1.6 km/h 90% 0.0 mm 0 W/m2
04:07 1.3 °C -0.2 °C 1032.2 hPa Calm   1.6 km/h 90% 0.0 mm 0 W/m2
04:12 1.3 °C -0.2 °C 1032.2 hPa Calm     90% 0.0 mm 0 W/m2
04:17 1.3 °C 0 °C 1032.2 hPa Calm     91% 0.0 mm 0 W/m2
04:22 1.3 °C 0 °C 1032.2 hPa East 3.2 km/h 3.2 km/h 91% 0.0 mm 0 W/m2
04:27 1.2 °C -0.1 °C 1032.2 hPa East 1.4 km/h 1.6 km/h 91% 0.0 mm 0 W/m2
04:32 1.2 °C -0.1 °C 1032.2 hPa SE 1.4 km/h 3.2 km/h 91% 0.0 mm 0 W/m2
04:37 1.3 °C 0 °C 1031.8 hPa ESE 3.2 km/h 3.2 km/h 91% 0.0 mm 0 W/m2
04:42 1.3 °C -0.2 °C 1031.8 hPa Calm   1.6 km/h 90% 0.0 mm 0 W/m2
04:47 1.3 °C -0.2 °C 1031.8 hPa Calm   3.2 km/h 90% 0.0 mm 0 W/m2
04:52 1.3 °C -0.2 °C 1031.8 hPa Calm     90% 0.0 mm 0 W/m2
04:57 1.2 °C -0.3 °C 1031.8 hPa Calm     90% 0.0 mm 0 W/m2
05:02 1.1 °C -0.4 °C 1031.8 hPa Calm     90% 0.0 mm 0 W/m2
05:07 1.1 °C -0.2 °C 1031.8 hPa Calm   1.6 km/h 91% 0.0 mm 0 W/m2
05:12 1 °C -0.3 °C 1031.8 hPa East 1.4 km/h 1.6 km/h 91% 0.0 mm 0 W/m2
05:17 1 °C -0.3 °C 1031.8 hPa SE 1.4 km/h 3.2 km/h 91% 0.0 mm 0 W/m2
05:22 1 °C -0.3 °C 1031.8 hPa Calm   3.2 km/h 91% 0.0 mm 0 W/m2
05:27 1 °C -0.3 °C 1031.8 hPa ESE 1.4 km/h 3.2 km/h 91% 0.0 mm 0 W/m2
05:32 1 °C -0.3 °C 1031.8 hPa Calm     91% 0.0 mm 0 W/m2
05:37 1 °C -0.3 °C 1031.8 hPa ESE 1.4 km/h 3.2 km/h 91% 0.0 mm 0 W/m2
05:42 0.9 °C -0.4 °C 1031.8 hPa Calm     91% 0.0 mm 0 W/m2
05:47 0.9 °C -0.4 °C 1031.8 hPa ESE 1.4 km/h 3.2 km/h 91% 0.0 mm 0 W/m2
05:52 0.9 °C -0.4 °C 1031.8 hPa ESE 1.4 km/h 4.8 km/h 91% 0.0 mm 0 W/m2
05:57 0.9 °C -0.4 °C 1031.8 hPa Calm     91% 0.0 mm 0 W/m2
06:02 0.9 °C -0.4 °C 1031.8 hPa Calm   4.8 km/h 91% 0.0 mm 0 W/m2
06:07 0.9 °C -0.4 °C 1031.5 hPa Calm   3.2 km/h 91% 0.0 mm 0 W/m2
06:12 0.9 °C -0.4 °C 1031.8 hPa ESE 1.4 km/h 3.2 km/h 91% 0.0 mm 0 W/m2
06:17 0.9 °C -0.4 °C 1031.8 hPa ESE 1.4 km/h 3.2 km/h 91% 0.0 mm 0 W/m2
06:22 0.8 °C -0.5 °C 1031.5 hPa ESE 1.4 km/h 3.2 km/h 91% 0.0 mm 0 W/m2
06:27 0.8 °C -0.5 °C 1031.5 hPa Calm   1.6 km/h 91% 0.0 mm 0 W/m2
06:32 0.8 °C -0.5 °C 1031.5 hPa Calm   1.6 km/h 91% 0.0 mm 0 W/m2
06:37 0.8 °C -0.5 °C 1031.5 hPa Calm     91% 0.0 mm 0 W/m2
06:42 0.8 °C -0.5 °C 1031.5 hPa ESE 1.4 km/h 1.6 km/h 91% 0.0 mm 0 W/m2
06:47 0.8 °C -0.5 °C 1031.5 hPa Calm   3.2 km/h 91% 0.0 mm 0 W/m2
06:52 0.7 °C -0.6 °C 1031.5 hPa Calm   3.2 km/h 91% 0.0 mm 0 W/m2
06:57 0.7 °C -0.6 °C 1031.5 hPa Calm     91% 0.0 mm 0 W/m2
07:02 0.7 °C -0.6 °C 1031.5 hPa Calm     91% 0.0 mm 0 W/m2
07:07 0.7 °C -0.6 °C 1031.5 hPa Calm     91% 0.0 mm 0 W/m2
07:12 0.6 °C -0.7 °C 1031.5 hPa Calm     91% 0.0 mm 0 W/m2
07:22 0.4 °C -0.9 °C 1031.5 hPa Calm   1.6 km/h 91% 0.0 mm 0 W/m2
07:27 0.4 °C -0.9 °C 1031.5 hPa Calm     91% 0.0 mm 0 W/m2
07:32 0.3 °C -1 °C 1031.5 hPa Calm     91% 0.0 mm 0 W/m2
07:37 0.3 °C -1 °C 1031.5 hPa Calm     91% 0.0 mm 0 W/m2
07:42 0.2 °C -1.1 °C 1031.5 hPa Calm     91% 0.0 mm 0 W/m2
07:47 0.2 °C -0.9 °C 1031.8 hPa Calm   1.6 km/h 92% 0.0 mm 0 W/m2
07:52 0.2 °C -0.9 °C 1031.5 hPa Calm   3.2 km/h 92% 0.0 mm 0 W/m2
07:57 0.2 °C -0.9 °C 1031.8 hPa Calm     92% 0.0 mm 0 W/m2
08:02 0.2 °C -0.9 °C 1031.8 hPa Calm   3.2 km/h 92% 0.0 mm 0 W/m2
08:07 0.2 °C -0.9 °C 1031.8 hPa Calm   1.6 km/h 92% 0.0 mm 0 W/m2
08:12 0.2 °C -0.9 °C 1031.8 hPa Calm     92% 0.0 mm 0 W/m2
08:18 0.1 °C -1 °C 1031.8 hPa Calm   1.6 km/h 92% 0.0 mm 0 W/m2
08:23 0.1 °C -1 °C 1031.8 hPa Calm     92% 0.0 mm 5 W/m2
08:28 0.1 °C -1 °C 1031.8 hPa Calm     92% 0.0 mm 7 W/m2
08:33 0.1 °C -1 °C 1031.8 hPa Calm     92% 0.0 mm 9 W/m2
08:38 0 °C -1.1 °C 1032.2 hPa Calm     92% 0.0 mm 11 W/m2
08:43 0 °C -1.1 °C 1032.2 hPa East 1.4 km/h 3.2 km/h 92% 0.0 mm 12 W/m2
08:48 0.1 °C -0.9 °C 1032.2 hPa Calm   1.6 km/h 93% 0.0 mm 14 W/m2
08:53 0.1 °C -0.9 °C 1032.2 hPa Calm   3.2 km/h 93% 0.0 mm 16 W/m2
08:58 0.2 °C -0.8 °C 1032.2 hPa Calm     93% 0.0 mm 16 W/m2
09:03 0.3 °C -0.7 °C 1032.5 hPa East 1.4 km/h 3.2 km/h 93% 0.0 mm 18 W/m2
09:08 0.5 °C -0.5 °C 1032.5 hPa Calm     93% 0.0 mm 19 W/m2
09:13 0.6 °C -0.4 °C 1032.5 hPa Calm   3.2 km/h 93% 0.0 mm 19 W/m2
09:18 0.7 °C -0.5 °C 1032.5 hPa Calm   1.6 km/h 92% 0.0 mm 21 W/m2
09:23 0.8 °C -0.4 °C 1032.5 hPa East 3.2 km/h 3.2 km/h 92% 0.0 mm 23 W/m2
09:28 0.9 °C -0.3 °C 1032.5 hPa Calm   1.6 km/h 92% 0.0 mm 23 W/m2
09:33 1.1 °C -0.1 °C 1032.5 hPa Calm   1.6 km/h 92% 0.0 mm 25 W/m2
09:43 1.3 °C 0 °C 1032.5 hPa Calm   1.6 km/h 91% 0.0 mm 39 W/m2
09:48 1.5 °C 0.2 °C 1032.5 hPa Calm   3.2 km/h 91% 0.0 mm 30 W/m2
09:53 1.7 °C 0.4 °C 1032.2 hPa Calm   1.6 km/h 91% 0.0 mm 33 W/m2
10:03 1.9 °C 0.4 °C 1032.5 hPa SE 3.2 km/h 6.4 km/h 90% 0.0 mm 37 W/m2
10:08 2.2 °C 0.6 °C 1032.5 hPa East 1.4 km/h 3.2 km/h 89% 0.0 mm 32 W/m2
10:13 2.4 °C 0.6 °C 1032.5 hPa Calm   6.4 km/h 88% 0.0 mm 32 W/m2
10:18 2.5 °C 0.7 °C 1032.2 hPa ENE 6.4 km/h 6.4 km/h 88% 0.0 mm 32 W/m2
10:23 2.7 °C 0.8 °C 1032.2 hPa Calm   4.8 km/h 87% 0.0 mm 39 W/m2
10:28 2.8 °C 0.9 °C 1032.5 hPa ESE 3.2 km/h 8 km/h 87% 0.0 mm 39 W/m2
10:33 2.9 °C 0.8 °C 1032.5 hPa SE 3.2 km/h 11.3 km/h 86% 0.0 mm 35 W/m2
10:38 3.1 °C 1 °C 1032.5 hPa NE 6.4 km/h 6.4 km/h 86% 0.0 mm 39 W/m2
10:43 3.3 °C 1 °C 1032.5 hPa East 3.2 km/h 11.3 km/h 85% 0.0 mm 42 W/m2
10:48 3.3 °C 1 °C 1032.5 hPa NE 3.2 km/h 6.4 km/h 85% 0.0 mm 42 W/m2
10:53 3.4 °C 1.1 °C 1032.5 hPa SSE 1.4 km/h 9.7 km/h 85% 0.0 mm 40 W/m2
10:58 3.6 °C 1.2 °C 1032.5 hPa East 6.4 km/h 12.9 km/h 84% 0.0 mm 39 W/m2
11:03 3.7 °C 1.2 °C 1032.5 hPa East 6.4 km/h 6.4 km/h 84% 0.0 mm 42 W/m2
11:08 3.8 °C 1.3 °C 1032.5 hPa ESE 4.7 km/h 11.3 km/h 84% 0.0 mm 44 W/m2
11:13 3.8 °C 1.2 °C 1032.5 hPa ENE 4.7 km/h 8 km/h 83% 0.0 mm 76 W/m2
11:18 3.9 °C 1.3 °C 1032.5 hPa SSE 1.4 km/h 3.2 km/h 83% 0.0 mm 81 W/m2
11:23 4.1 °C 1.5 °C 1032.5 hPa East 4.7 km/h 4.8 km/h 83% 0.0 mm 39 W/m2
11:28 4.2 °C 1.6 °C 1032.5 hPa East 4.7 km/h 8 km/h 83% 0.0 mm 107 W/m2
11:33 4.3 °C 1.5 °C 1032.5 hPa East 3.2 km/h 8 km/h 82% 0.0 mm 105 W/m2
11:38 4.4 °C 1.6 °C 1032.5 hPa East 1.4 km/h 4.8 km/h 82% 0.0 mm 37 W/m2
11:43 4.5 °C 1.5 °C 1032.5 hPa NNE 7.9 km/h 8 km/h 81% 0.0 mm 42 W/m2
11:48 4.6 °C 1.6 °C 1032.5 hPa ENE 4.7 km/h 11.3 km/h 81% 0.0 mm 76 W/m2
11:53 4.7 °C 1.7 °C 1032.5 hPa ENE 1.4 km/h   81% 0.0 mm 53 W/m2
11:58 4.8 °C 1.8 °C 1032.2 hPa East 3.2 km/h 8 km/h 81% 0.0 mm 42 W/m2
12:03 4.8 °C 1.8 °C 1032.2 hPa ENE 9.7 km/h 9.7 km/h 81% 0.0 mm 40 W/m2
12:08 4.9 °C 1.7 °C 1032.2 hPa North 4.7 km/h 12.9 km/h 80% 0.0 mm 47 W/m2
12:13 4.9 °C 1.7 °C 1032.2 hPa NE 3.2 km/h 6.4 km/h 80% 0.0 mm 40 W/m2
12:18 5.1 °C 1.9 °C 1032.2 hPa ESE 4.7 km/h 9.7 km/h 80% 0.0 mm 98 W/m2
12:23 5.2 °C 2 °C 1032.2 hPa East 4.7 km/h 4.8 km/h 80% 0.0 mm 70 W/m2
12:28 5.2 °C 1.9 °C 1032.2 hPa East 1.4 km/h 6.4 km/h 79% 0.0 mm 121 W/m2
12:33 5.3 °C 2 °C 1031.8 hPa ESE 4.7 km/h 9.7 km/h 79% 0.0 mm 54 W/m2
12:38 5.4 °C 2.1 °C 1031.8 hPa East 4.7 km/h 6.4 km/h 79% 0.0 mm 53 W/m2
12:43 5.4 °C 2.1 °C 1031.8 hPa ESE 3.2 km/h 9.7 km/h 79% 0.0 mm 107 W/m2
12:48 5.5 °C 2.1 °C 1031.8 hPa SE 3.2 km/h 8 km/h 79% 0.0 mm 44 W/m2
12:53 5.7 °C 2.2 °C 1031.8 hPa SE 11.1 km/h 11.3 km/h 78% 0.0 mm 37 W/m2
12:58 5.7 °C 2.2 °C 1031.8 hPa East 4.7 km/h 8 km/h 78% 0.0 mm 39 W/m2
13:03 5.8 °C 2.3 °C 1031.8 hPa ESE 4.7 km/h 6.4 km/h 78% 0.0 mm 58 W/m2
13:08 5.8 °C 2.3 °C 1031.8 hPa SE 3.2 km/h 6.4 km/h 78% 0.0 mm 54 W/m2
13:13 5.9 °C 2.2 °C 1031.8 hPa East 1.4 km/h 6.4 km/h 77% 0.0 mm 44 W/m2
13:18 5.9 °C 2.2 °C 1031.8 hPa East 3.2 km/h 9.7 km/h 77% 0.0 mm 40 W/m2
13:23 6 °C 2.3 °C 1031.5 hPa ESE 4.7 km/h 6.4 km/h 77% 0.0 mm 37 W/m2
13:28 6.1 °C 2.4 °C 1031.5 hPa East 4.7 km/h 6.4 km/h 77% 0.0 mm 37 W/m2
13:33 6.2 °C 2.5 °C 1031.5 hPa ESE 3.2 km/h 6.4 km/h 77% 0.0 mm 49 W/m2
13:38 6.3 °C 2.6 °C 1031.5 hPa East 4.7 km/h 6.4 km/h 77% 0.0 mm 76 W/m2
13:43 6.3 °C 2.6 °C 1031.5 hPa SE 1.4 km/h 6.4 km/h 77% 0.0 mm 33 W/m2
13:48 6.3 °C 2.6 °C 1031.5 hPa ESE 1.4 km/h 6.4 km/h 77% 0.0 mm 33 W/m2
13:53 6.3 °C 2.6 °C 1031.5 hPa ESE 4.7 km/h 16.1 km/h 77% 0.0 mm 53 W/m2
13:58 6.3 °C 2.4 °C 1031.5 hPa NE 3.2 km/h 4.8 km/h 76% 0.0 mm 54 W/m2
14:03 6.4 °C 2.5 °C 1031.5 hPa SE 6.4 km/h 16.1 km/h 76% 0.0 mm 44 W/m2
14:08 6.4 °C 2.3 °C 1031.5 hPa East 1.4 km/h 11.3 km/h 75% 0.0 mm 39 W/m2
14:13 6.5 °C 2.6 °C 1031.5 hPa SE 6.4 km/h 6.4 km/h 76% 0.0 mm 40 W/m2
14:18 6.6 °C 2.5 °C 1031.2 hPa ENE 6.4 km/h 6.4 km/h 75% 0.0 mm 54 W/m2
14:23 6.6 °C 2.7 °C 1031.2 hPa Calm   1.6 km/h 76% 0.0 mm 39 W/m2
14:28 6.6 °C 2.7 °C 1031.2 hPa ESE 1.4 km/h 6.4 km/h 76% 0.0 mm 33 W/m2
14:33 6.7 °C 2.8 °C 1031.2 hPa SE 4.7 km/h 4.8 km/h 76% 0.0 mm 32 W/m2
14:38 6.8 °C 2.9 °C 1031.5 hPa ESE 3.2 km/h 6.4 km/h 76% 0.0 mm 35 W/m2
14:43 6.8 °C 2.7 °C 1031.2 hPa SE 1.4 km/h 4.8 km/h 75% 0.0 mm 35 W/m2
14:48 6.9 °C 3 °C 1031.2 hPa ESE 3.2 km/h 8 km/h 76% 0.0 mm 33 W/m2
14:53 6.9 °C 2.8 °C 1031.2 hPa ESE 1.4 km/h 4.8 km/h 75% 0.0 mm 33 W/m2
14:58 7 °C 2.9 °C 1031.5 hPa East 4.7 km/h 11.3 km/h 75% 0.0 mm 32 W/m2
15:03 6.9 °C 2.8 °C 1031.5 hPa East 6.4 km/h 9.7 km/h 75% 0.0 mm 32 W/m2
15:08 6.9 °C 3 °C 1031.5 hPa SE 3.2 km/h 4.8 km/h 76% 0.0 mm 30 W/m2
15:13 6.9 °C 2.8 °C 1031.5 hPa Calm   6.4 km/h 75% 0.0 mm 30 W/m2
15:18 6.9 °C 3 °C 1031.5 hPa ESE 4.7 km/h 6.4 km/h 76% 0.0 mm 30 W/m2
15:23 6.8 °C 2.9 °C 1031.5 hPa Calm   6.4 km/h 76% 0.0 mm 28 W/m2
15:28 6.7 °C 2.8 °C 1031.5 hPa ESE 3.2 km/h 6.4 km/h 76% 0.0 mm 28 W/m2
15:33 6.7 °C 2.8 °C 1031.5 hPa Calm   6.4 km/h 76% 0.0 mm 28 W/m2
15:38 6.6 °C 2.7 °C 1031.5 hPa ESE 3.2 km/h 9.7 km/h 76% 0.0 mm 26 W/m2
15:43 6.5 °C 2.6 °C 1031.5 hPa East 4.7 km/h 9.7 km/h 76% 0.0 mm 26 W/m2
15:48 6.4 °C 2.7 °C 1031.5 hPa ESE 3.2 km/h 11.3 km/h 77% 0.0 mm 25 W/m2
15:53 6.4 °C 2.7 °C 1031.5 hPa ENE 4.7 km/h 9.7 km/h 77% 0.0 mm 25 W/m2
15:59 6.3 °C 2.6 °C 1031.5 hPa ESE 3.2 km/h 11.3 km/h 77% 0.0 mm 23 W/m2
16:04 6.3 °C 2.6 °C 1031.2 hPa Calm   3.2 km/h 77% 0.0 mm 23 W/m2
16:09 6.2 °C 2.6 °C 1031.5 hPa East 6.4 km/h 12.9 km/h 78% 0.0 mm 23 W/m2
16:14 6.2 °C 2.6 °C 1031.5 hPa East 1.4 km/h 9.7 km/h 78% 0.0 mm 21 W/m2
16:19 6.1 °C 2.6 °C 1031.5 hPa East 1.4 km/h 8 km/h 78% 0.0 mm 21 W/m2
16:24 6.1 °C 2.6 °C 1031.2 hPa ENE 4.7 km/h 6.4 km/h 78% 0.0 mm 19 W/m2
16:29 5.9 °C 2.4 °C 1031.2 hPa East 1.4 km/h 6.4 km/h 78% 0.0 mm 18 W/m2
16:34 5.8 °C 2.4 °C 1031.2 hPa East 1.4 km/h 6.4 km/h 79% 0.0 mm 18 W/m2
16:39 5.7 °C 2.3 °C 1031.5 hPa ESE 6.4 km/h 6.4 km/h 79% 0.0 mm 16 W/m2
16:44 5.7 °C 2.3 °C 1031.5 hPa ESE 1.4 km/h 6.4 km/h 79% 0.0 mm 14 W/m2
16:49 5.6 °C 2.4 °C 1031.5 hPa ESE 3.2 km/h 6.4 km/h 80% 0.0 mm 14 W/m2
16:54 5.5 °C 2.3 °C 1031.5 hPa East 3.2 km/h 4.8 km/h 80% 0.0 mm 12 W/m2
17:04 5.2 °C 2.2 °C 1031.5 hPa Calm     81% 0.0 mm 9 W/m2
17:09 4.9 °C 1.9 °C 1031.5 hPa East 3.2 km/h 4.8 km/h 81% 0.0 mm 7 W/m2
17:14 4.8 °C 2 °C 1031.5 hPa East 6.4 km/h 9.7 km/h 82% 0.0 mm 5 W/m2
17:19 4.8 °C 2 °C 1031.5 hPa ESE 1.4 km/h 9.7 km/h 82% 0.0 mm 5 W/m2
17:24 4.8 °C 2 °C 1031.8 hPa Calm   3.2 km/h 82% 0.0 mm 0 W/m2
17:29 4.7 °C 1.9 °C 1031.8 hPa Calm   9.7 km/h 82% 0.0 mm 0 W/m2
17:34 4.4 °C 1.8 °C 1031.8 hPa Calm     83% 0.0 mm 0 W/m2
17:39 4.2 °C 1.6 °C 1031.8 hPa Calm   3.2 km/h 83% 0.0 mm 0 W/m2
17:44 4.1 °C 1.6 °C 1031.8 hPa Calm     84% 0.0 mm 0 W/m2
17:49 3.9 °C 1.4 °C 1031.8 hPa Calm     84% 0.0 mm 0 W/m2
17:54 3.7 °C 1.4 °C 1031.8 hPa ESE 1.4 km/h 3.2 km/h 85% 0.0 mm 0 W/m2
17:59 3.6 °C 1.5 °C 1031.8 hPa Calm   3.2 km/h 86% 0.0 mm 0 W/m2
18:04 3.5 °C 1.4 °C 1031.8 hPa Calm     86% 0.0 mm 0 W/m2
18:09 3.4 °C 1.3 °C 1031.8 hPa Calm   3.2 km/h 86% 0.0 mm 0 W/m2
18:14 3.3 °C 1.2 °C 1031.8 hPa Calm     86% 0.0 mm 0 W/m2
18:19 3.2 °C 1.2 °C 1031.8 hPa Calm   1.6 km/h 87% 0.0 mm 0 W/m2
18:24 3.1 °C 1.1 °C 1031.8 hPa Calm     87% 0.0 mm 0 W/m2
18:29 2.9 °C 1 °C 1031.8 hPa Calm   1.6 km/h 87% 0.0 mm 0 W/m2
18:34 2.8 °C 0.9 °C 1031.8 hPa Calm     87% 0.0 mm 0 W/m2
18:39 2.7 °C 0.8 °C 1031.8 hPa Calm     87% 0.0 mm 0 W/m2
18:44 2.5 °C 0.7 °C 1031.8 hPa Calm     88% 0.0 mm 0 W/m2
18:49 2.3 °C 0.5 °C 1031.8 hPa Calm     88% 0.0 mm 0 W/m2
18:54 2.2 °C 0.4 °C 1031.8 hPa Calm     88% 0.0 mm 0 W/m2
18:59 2 °C 0.2 °C 1031.8 hPa Calm     88% 0.0 mm 0 W/m2
19:04 1.8 °C 0.2 °C 1032.2 hPa Calm     89% 0.0 mm 0 W/m2
19:09 1.7 °C 0.1 °C 1032.2 hPa Calm     89% 0.0 mm 0 W/m2
19:14 1.6 °C 0 °C 1032.2 hPa Calm     89% 0.0 mm 0 W/m2
19:19 1.4 °C -0.2 °C 1032.2 hPa Calm     89% 0.0 mm 0 W/m2
19:24 1.3 °C -0.2 °C 1032.2 hPa Calm     90% 0.0 mm 0 W/m2
19:29 1.2 °C -0.3 °C 1032.5 hPa Calm     90% 0.0 mm 0 W/m2
19:34 1.1 °C -0.4 °C 1032.5 hPa Calm     90% 0.0 mm 0 W/m2
19:39 0.9 °C -0.4 °C 1032.5 hPa Calm     91% 0.0 mm 0 W/m2
19:44 0.8 °C -0.5 °C 1032.5 hPa Calm     91% 0.0 mm 0 W/m2
19:49 0.7 °C -0.6 °C 1032.2 hPa Calm     91% 0.0 mm 0 W/m2
19:54 0.7 °C -0.6 °C 1032.5 hPa Calm     91% 0.0 mm 0 W/m2
19:59 0.6 °C -0.5 °C 1032.5 hPa Calm     92% 0.0 mm 0 W/m2
20:04 0.6 °C -0.5 °C 1032.5 hPa Calm     92% 0.0 mm 0 W/m2
20:09 0.6 °C -0.5 °C 1032.5 hPa Calm     92% 0.0 mm 0 W/m2
20:14 0.5 °C -0.6 °C 1032.5 hPa Calm     92% 0.0 mm 0 W/m2
20:19 0.5 °C -0.6 °C 1032.5 hPa ENE 1.4 km/h 3.2 km/h 92% 0.0 mm 0 W/m2
20:24 0.6 °C -0.4 °C 1032.2 hPa Calm   1.6 km/h 93% 0.0 mm 0 W/m2
20:29 0.7 °C -0.3 °C 1032.2 hPa Calm     93% 0.0 mm 0 W/m2
20:34 0.7 °C -0.3 °C 1032.5 hPa Calm   1.6 km/h 93% 0.0 mm 0 W/m2
20:39 0.6 °C -0.5 °C 1032.5 hPa Calm     92% 0.0 mm 0 W/m2
20:44 0.4 °C -0.7 °C 1032.5 hPa Calm     92% 0.0 mm 0 W/m2
20:49 0.3 °C -0.8 °C 1032.5 hPa Calm     92% 0.0 mm 0 W/m2
20:54 0.2 °C -0.9 °C 1032.5 hPa Calm     92% 0.0 mm 0 W/m2
20:59 0.2 °C -0.9 °C 1032.5 hPa Calm     92% 0.0 mm 0 W/m2
21:04 0.1 °C -0.9 °C 1032.5 hPa Calm     93% 0.0 mm 0 W/m2
21:09 0 °C -1 °C 1032.5 hPa Calm     93% 0.0 mm 0 W/m2
21:14 -0.1 °C -1.1 °C 1032.8 hPa Calm     93% 0.0 mm 0 W/m2
21:19 -0.1 °C -1.1 °C 1032.8 hPa Calm     93% 0.0 mm 0 W/m2
21:24 -0.1 °C -1.1 °C 1032.8 hPa Calm     93% 0.0 mm 0 W/m2
21:29 -0.1 °C -1.1 °C 1032.8 hPa Calm     93% 0.0 mm 0 W/m2
21:34 -0.2 °C -1.2 °C 1032.8 hPa Calm     93% 0.0 mm 0 W/m2
21:39 -0.2 °C -1.2 °C 1032.8 hPa Calm     93% 0.0 mm 0 W/m2
21:44 -0.2 °C -1.2 °C 1032.8 hPa Calm     93% 0.0 mm 0 W/m2
21:49 -0.2 °C -1.2 °C 1032.8 hPa Calm     93% 0.0 mm 0 W/m2
21:54 -0.2 °C -1 °C 1032.8 hPa Calm     94% 0.0 mm 0 W/m2
21:59 -0.2 °C -1 °C 1032.8 hPa Calm     94% 0.0 mm 0 W/m2
22:04 -0.3 °C -1.1 °C 1032.8 hPa East 1.4 km/h 1.6 km/h 94% 0.0 mm 0 W/m2
22:09 -0.3 °C -1.1 °C 1032.8 hPa Calm   1.6 km/h 94% 0.0 mm 0 W/m2
22:14 -0.3 °C -1.1 °C 1032.8 hPa Calm     94% 0.0 mm 0 W/m2
22:19 -0.3 °C -1.1 °C 1032.8 hPa Calm     94% 0.0 mm 0 W/m2
22:24 -0.3 °C -1.1 °C 1032.8 hPa Calm     94% 0.0 mm 0 W/m2
22:29 -0.3 °C -1.1 °C 1032.8 hPa Calm     94% 0.0 mm 0 W/m2
22:34 -0.3 °C -1.1 °C 1032.8 hPa Calm     94% 0.0 mm 0 W/m2
22:39 -0.4 °C -1.2 °C 1032.8 hPa Calm     94% 0.0 mm 0 W/m2
22:44 -0.4 °C -1.2 °C 1032.8 hPa Calm     94% 0.0 mm 0 W/m2
22:49 -0.5 °C -1.3 °C 1032.8 hPa Calm     94% 0.0 mm 0 W/m2
22:54 -0.6 °C -1.4 °C 1032.8 hPa Calm     94% 0.0 mm 0 W/m2
22:59 -0.6 °C -1.4 °C 1032.5 hPa Calm     94% 0.0 mm 0 W/m2
23:04 -0.7 °C -1.5 °C 1032.5 hPa Calm     94% 0.0 mm 0 W/m2
23:09 -0.7 °C -1.5 °C 1032.8 hPa Calm     94% 0.0 mm 0 W/m2
23:14 -0.8 °C -1.6 °C 1032.5 hPa Calm     94% 0.0 mm 0 W/m2
23:19 -0.7 °C -1.5 °C 1032.5 hPa Calm     94% 0.0 mm 0 W/m2
23:24 -0.8 °C -1.6 °C 1032.5 hPa Calm     94% 0.0 mm 0 W/m2
23:29 -0.8 °C -1.6 °C 1032.5 hPa Calm     94% 0.0 mm 0 W/m2
23:34 -0.9 °C -1.7 °C 1032.5 hPa Calm     94% 0.0 mm 0 W/m2
23:39 -1 °C -1.8 °C 1032.8 hPa Calm     94% 0.0 mm 0 W/m2
23:44 -1.1 °C -1.9 °C 1032.8 hPa Calm     94% 0.0 mm 0 W/m2
23:49 -1.1 °C -1.9 °C 1032.8 hPa Calm     94% 0.0 mm 0 W/m2
23:54 -1.1 °C -1.8 °C 1032.8 hPa Calm     95% 0.0 mm 0 W/m2
23:59 -0.9 °C -1.6 °C 1032.8 hPa Calm     95% 0.0 mm 0 W/m2
Juneau County Weather
Compliments of Weather Underground - 4 mb